sensor_id;sensor_type;location;lat;lon;timestamp;P1;durP1;ratioP1;P2;durP2;ratioP2
51654;SDS011;37732;53.106;7.030;2022-07-25T00:00:56;5.38;;;3.65;;
51654;SDS011;37732;53.106;7.030;2022-07-25T00:03:24;6.43;;;4.50;;
51654;SDS011;37732;53.106;7.030;2022-07-25T00:05:49;6.20;;;5.22;;
51654;SDS011;37732;53.106;7.030;2022-07-25T00:08:16;7.32;;;5.40;;
51654;SDS011;37732;53.106;7.030;2022-07-25T00:10:42;7.53;;;5.30;;
51654;SDS011;37732;53.106;7.030;2022-07-25T00:13:10;7.05;;;5.50;;
51654;SDS011;37732;53.106;7.030;2022-07-25T00:15:36;6.32;;;5.32;;
51654;SDS011;37732;53.106;7.030;2022-07-25T00:18:02;8.23;;;6.30;;
51654;SDS011;37732;53.106;7.030;2022-07-25T00:20:27;6.90;;;5.95;;
51654;SDS011;37732;53.106;7.030;2022-07-25T00:22:53;10.57;;;6.28;;
51654;SDS011;37732;53.106;7.030;2022-07-25T00:25:21;8.25;;;6.22;;
51654;SDS011;37732;53.106;7.030;2022-07-25T00:27:47;7.85;;;5.55;;
51654;SDS011;37732;53.106;7.030;2022-07-25T00:30:12;7.90;;;6.15;;
51654;SDS011;37732;53.106;7.030;2022-07-25T00:32:40;7.93;;;5.82;;
51654;SDS011;37732;53.106;7.030;2022-07-25T00:35:06;8.07;;;7.00;;
51654;SDS011;37732;53.106;7.030;2022-07-25T00:37:34;10.93;;;6.72;;
51654;SDS011;37732;53.106;7.030;2022-07-25T00:40:00;7.78;;;6.97;;
51654;SDS011;37732;53.106;7.030;2022-07-25T00:42:27;8.43;;;6.90;;
51654;SDS011;37732;53.106;7.030;2022-07-25T00:44:54;9.35;;;6.88;;
51654;SDS011;37732;53.106;7.030;2022-07-25T00:47:21;9.45;;;7.40;;
51654;SDS011;37732;53.106;7.030;2022-07-25T00:49:47;9.90;;;7.38;;
51654;SDS011;37732;53.106;7.030;2022-07-25T00:52:13;9.50;;;6.75;;
51654;SDS011;37732;53.106;7.030;2022-07-25T00:54:39;10.27;;;7.75;;
51654;SDS011;37732;53.106;7.030;2022-07-25T00:57:06;10.07;;;7.47;;
51654;SDS011;37732;53.106;7.030;2022-07-25T00:59:32;10.50;;;7.10;;
51654;SDS011;37732;53.106;7.030;2022-07-25T01:01:58;9.32;;;8.40;;
51654;SDS011;37732;53.106;7.030;2022-07-25T01:04:26;9.73;;;8.73;;
51654;SDS011;37732;53.106;7.030;2022-07-25T01:06:51;8.93;;;8.02;;
51654;SDS011;37732;53.106;7.030;2022-07-25T01:09:18;12.95;;;9.27;;
51654;SDS011;37732;53.106;7.030;2022-07-25T01:11:47;9.80;;;8.35;;
51654;SDS011;37732;53.106;7.030;2022-07-25T01:14:13;9.57;;;7.95;;
51654;SDS011;37732;53.106;7.030;2022-07-25T01:16:40;11.38;;;9.80;;
51654;SDS011;37732;53.106;7.030;2022-07-25T01:19:06;11.05;;;9.95;;
51654;SDS011;37732;53.106;7.030;2022-07-25T01:21:36;11.18;;;10.07;;
51654;SDS011;37732;53.106;7.030;2022-07-25T01:24:04;13.48;;;10.23;;
51654;SDS011;37732;53.106;7.030;2022-07-25T01:26:31;11.35;;;10.25;;
51654;SDS011;37732;53.106;7.030;2022-07-25T01:28:57;12.75;;;11.25;;
51654;SDS011;37732;53.106;7.030;2022-07-25T01:31:25;10.98;;;9.88;;
51654;SDS011;37732;53.106;7.030;2022-07-25T01:33:51;12.18;;;10.98;;
51654;SDS011;37732;53.106;7.030;2022-07-25T01:36:18;13.38;;;12.07;;
51654;SDS011;37732;53.106;7.030;2022-07-25T01:38:44;12.95;;;11.70;;
51654;SDS011;37732;53.106;7.030;2022-07-25T01:41:10;14.80;;;13.30;;
51654;SDS011;37732;53.106;7.030;2022-07-25T01:43:38;14.02;;;11.50;;
51654;SDS011;37732;53.106;7.030;2022-07-25T01:46:05;14.38;;;12.98;;
51654;SDS011;37732;53.106;7.030;2022-07-25T01:48:31;13.23;;;11.93;;
51654;SDS011;37732;53.106;7.030;2022-07-25T01:50:59;13.13;;;11.90;;
51654;SDS011;37732;53.106;7.030;2022-07-25T01:53:24;13.75;;;12.45;;
51654;SDS011;37732;53.106;7.030;2022-07-25T01:55:50;13.48;;;11.88;;
51654;SDS011;37732;53.106;7.030;2022-07-25T01:58:18;14.10;;;12.70;;
51654;SDS011;37732;53.106;7.030;2022-07-25T02:00:44;12.85;;;11.48;;
51654;SDS011;37732;53.106;7.030;2022-07-25T02:03:10;15.60;;;14.20;;
51654;SDS011;37732;53.106;7.030;2022-07-25T02:05:59;14.23;;;12.90;;
51654;SDS011;37732;53.106;7.030;2022-07-25T02:08:31;14.43;;;13.02;;
51654;SDS011;37732;53.106;7.030;2022-07-25T02:10:57;15.23;;;13.63;;
51654;SDS011;37732;53.106;7.030;2022-07-25T02:13:25;13.23;;;11.93;;
51654;SDS011;37732;53.106;7.030;2022-07-25T02:15:51;15.52;;;13.93;;
51654;SDS011;37732;53.106;7.030;2022-07-25T02:18:17;14.52;;;13.07;;
51654;SDS011;37732;53.106;7.030;2022-07-25T02:20:45;13.85;;;12.57;;
51654;SDS011;37732;53.106;7.030;2022-07-25T02:23:11;13.38;;;12.07;;
51654;SDS011;37732;53.106;7.030;2022-07-25T02:25:37;15.63;;;13.98;;
51654;SDS011;37732;53.106;7.030;2022-07-25T02:28:04;14.95;;;13.45;;
51654;SDS011;37732;53.106;7.030;2022-07-25T02:30:30;15.60;;;14.07;;
51654;SDS011;37732;53.106;7.030;2022-07-25T02:32:56;14.07;;;12.23;;
51654;SDS011;37732;53.106;7.030;2022-07-25T02:35:22;15.52;;;13.88;;
51654;SDS011;37732;53.106;7.030;2022-07-25T02:37:49;13.93;;;12.48;;
51654;SDS011;37732;53.106;7.030;2022-07-25T02:40:15;13.60;;;12.40;;
51654;SDS011;37732;53.106;7.030;2022-07-25T02:42:42;14.60;;;13.30;;
51654;SDS011;37732;53.106;7.030;2022-07-25T02:45:08;14.18;;;12.70;;
51654;SDS011;37732;53.106;7.030;2022-07-25T02:47:36;13.45;;;11.75;;
51654;SDS011;37732;53.106;7.030;2022-07-25T02:50:02;17.25;;;15.38;;
51654;SDS011;37732;53.106;7.030;2022-07-25T02:52:30;14.60;;;13.20;;
51654;SDS011;37732;53.106;7.030;2022-07-25T02:54:56;15.15;;;13.60;;
51654;SDS011;37732;53.106;7.030;2022-07-25T02:57:21;16.13;;;14.52;;
51654;SDS011;37732;53.106;7.030;2022-07-25T02:59:49;16.10;;;14.57;;
51654;SDS011;37732;53.106;7.030;2022-07-25T03:02:15;16.92;;;15.30;;
51654;SDS011;37732;53.106;7.030;2022-07-25T03:04:41;16.40;;;14.90;;
51654;SDS011;37732;53.106;7.030;2022-07-25T03:07:07;14.60;;;13.07;;
51654;SDS011;37732;53.106;7.030;2022-07-25T03:09:34;13.70;;;12.10;;
51654;SDS011;37732;53.106;7.030;2022-07-25T03:12:01;16.52;;;14.93;;
51654;SDS011;37732;53.106;7.030;2022-07-25T03:14:26;17.00;;;15.35;;
51654;SDS011;37732;53.106;7.030;2022-07-25T03:16:54;14.75;;;13.30;;
51654;SDS011;37732;53.106;7.030;2022-07-25T03:19:20;16.55;;;14.95;;
51654;SDS011;37732;53.106;7.030;2022-07-25T03:21:46;16.35;;;14.85;;
51654;SDS011;37732;53.106;7.030;2022-07-25T03:24:12;15.32;;;13.90;;
51654;SDS011;37732;53.106;7.030;2022-07-25T03:26:38;17.33;;;15.25;;
51654;SDS011;37732;53.106;7.030;2022-07-25T03:29:05;16.45;;;14.80;;
51654;SDS011;37732;53.106;7.030;2022-07-25T03:31:31;16.13;;;14.63;;
51654;SDS011;37732;53.106;7.030;2022-07-25T03:33:57;15.68;;;14.18;;
51654;SDS011;37732;53.106;7.030;2022-07-25T03:36:23;15.73;;;14.18;;
51654;SDS011;37732;53.106;7.030;2022-07-25T03:38:48;14.88;;;13.38;;
51654;SDS011;37732;53.106;7.030;2022-07-25T03:41:14;17.00;;;15.23;;
51654;SDS011;37732;53.106;7.030;2022-07-25T03:43:40;16.70;;;15.00;;
51654;SDS011;37732;53.106;7.030;2022-07-25T03:46:07;17.02;;;15.35;;
51654;SDS011;37732;53.106;7.030;2022-07-25T03:48:34;15.85;;;14.35;;
51654;SDS011;37732;53.106;7.030;2022-07-25T03:51:00;15.63;;;14.23;;
51654;SDS011;37732;53.106;7.030;2022-07-25T03:53:27;14.70;;;13.20;;
51654;SDS011;37732;53.106;7.030;2022-07-25T03:55:56;16.25;;;13.93;;
51654;SDS011;37732;53.106;7.030;2022-07-25T03:58:22;15.98;;;14.43;;
51654;SDS011;37732;53.106;7.030;2022-07-25T04:00:47;14.60;;;13.07;;
51654;SDS011;37732;53.106;7.030;2022-07-25T04:03:13;14.25;;;12.82;;
51654;SDS011;37732;53.106;7.030;2022-07-25T04:05:41;13.77;;;12.05;;
51654;SDS011;37732;53.106;7.030;2022-07-25T04:08:07;16.00;;;13.75;;
51654;SDS011;37732;53.106;7.030;2022-07-25T04:10:32;15.75;;;14.25;;
51654;SDS011;37732;53.106;7.030;2022-07-25T04:13:00;15.30;;;13.35;;
51654;SDS011;37732;53.106;7.030;2022-07-25T04:15:26;15.43;;;13.77;;
51654;SDS011;37732;53.106;7.030;2022-07-25T04:17:54;14.98;;;12.52;;
51654;SDS011;37732;53.106;7.030;2022-07-25T04:20:20;15.90;;;13.35;;
51654;SDS011;37732;53.106;7.030;2022-07-25T04:22:46;14.15;;;12.82;;
51654;SDS011;37732;53.106;7.030;2022-07-25T04:25:14;14.02;;;12.73;;
51654;SDS011;37732;53.106;7.030;2022-07-25T04:27:42;13.93;;;12.60;;
51654;SDS011;37732;53.106;7.030;2022-07-25T04:30:08;15.27;;;13.70;;
51654;SDS011;37732;53.106;7.030;2022-07-25T04:32:35;15.00;;;13.50;;
51654;SDS011;37732;53.106;7.030;2022-07-25T04:35:01;15.90;;;14.23;;
51654;SDS011;37732;53.106;7.030;2022-07-25T04:37:28;16.02;;;14.43;;
51654;SDS011;37732;53.106;7.030;2022-07-25T04:39:54;15.15;;;12.77;;
51654;SDS011;37732;53.106;7.030;2022-07-25T04:42:20;15.77;;;14.10;;
51654;SDS011;37732;53.106;7.030;2022-07-25T04:44:49;16.58;;;14.88;;
51654;SDS011;37732;53.106;7.030;2022-07-25T04:47:16;14.25;;;12.75;;
51654;SDS011;37732;53.106;7.030;2022-07-25T04:49:42;13.63;;;12.40;;
51654;SDS011;37732;53.106;7.030;2022-07-25T04:52:08;15.85;;;14.35;;
51654;SDS011;37732;53.106;7.030;2022-07-25T04:54:34;16.38;;;14.73;;
51654;SDS011;37732;53.106;7.030;2022-07-25T04:57:00;15.88;;;14.48;;
51654;SDS011;37732;53.106;7.030;2022-07-25T04:59:29;15.73;;;14.15;;
51654;SDS011;37732;53.106;7.030;2022-07-25T05:01:55;15.93;;;14.43;;
51654;SDS011;37732;53.106;7.030;2022-07-25T05:04:21;15.90;;;14.35;;
51654;SDS011;37732;53.106;7.030;2022-07-25T05:06:48;15.32;;;13.60;;
51654;SDS011;37732;53.106;7.030;2022-07-25T05:09:14;15.10;;;13.70;;
51654;SDS011;37732;53.106;7.030;2022-07-25T05:11:40;16.23;;;14.48;;
51654;SDS011;37732;53.106;7.030;2022-07-25T05:14:06;15.20;;;13.60;;
51654;SDS011;37732;53.106;7.030;2022-07-25T05:16:33;14.68;;;13.18;;
51654;SDS011;37732;53.106;7.030;2022-07-25T05:18:59;16.05;;;14.45;;
51654;SDS011;37732;53.106;7.030;2022-07-25T05:21:25;14.90;;;13.43;;
51654;SDS011;37732;53.106;7.030;2022-07-25T05:23:51;15.38;;;13.80;;
51654;SDS011;37732;53.106;7.030;2022-07-25T05:26:19;15.13;;;13.57;;
51654;SDS011;37732;53.106;7.030;2022-07-25T05:28:45;14.70;;;13.18;;
51654;SDS011;37732;53.106;7.030;2022-07-25T05:31:13;14.15;;;12.75;;
51654;SDS011;37732;53.106;7.030;2022-07-25T05:33:39;15.00;;;13.45;;
51654;SDS011;37732;53.106;7.030;2022-07-25T05:36:08;15.68;;;13.55;;
51654;SDS011;37732;53.106;7.030;2022-07-25T05:38:34;16.63;;;14.95;;
51654;SDS011;37732;53.106;7.030;2022-07-25T05:41:00;15.65;;;14.15;;
51654;SDS011;37732;53.106;7.030;2022-07-25T05:43:25;16.25;;;14.25;;
51654;SDS011;37732;53.106;7.030;2022-07-25T05:45:52;14.77;;;13.38;;
51654;SDS011;37732;53.106;7.030;2022-07-25T05:48:25;15.27;;;13.77;;
51654;SDS011;37732;53.106;7.030;2022-07-25T05:50:53;15.18;;;13.57;;
51654;SDS011;37732;53.106;7.030;2022-07-25T05:53:19;14.00;;;12.55;;
51654;SDS011;37732;53.106;7.030;2022-07-25T05:55:45;14.32;;;12.93;;
51654;SDS011;37732;53.106;7.030;2022-07-25T05:58:12;13.57;;;12.27;;
51654;SDS011;37732;53.106;7.030;2022-07-25T06:00:38;14.35;;;12.85;;
51654;SDS011;37732;53.106;7.030;2022-07-25T06:03:06;14.10;;;12.80;;
51654;SDS011;37732;53.106;7.030;2022-07-25T06:05:32;13.88;;;12.40;;
51654;SDS011;37732;53.106;7.030;2022-07-25T06:07:57;13.73;;;12.32;;
51654;SDS011;37732;53.106;7.030;2022-07-25T06:10:25;14.73;;;11.98;;
51654;SDS011;37732;53.106;7.030;2022-07-25T06:12:51;14.57;;;13.02;;
51654;SDS011;37732;53.106;7.030;2022-07-25T06:15:19;13.75;;;12.35;;
51654;SDS011;37732;53.106;7.030;2022-07-25T06:17:46;12.52;;;11.27;;
51654;SDS011;37732;53.106;7.030;2022-07-25T06:20:12;12.95;;;11.38;;
51654;SDS011;37732;53.106;7.030;2022-07-25T06:22:38;12.82;;;11.45;;
51654;SDS011;37732;53.106;7.030;2022-07-25T06:25:04;12.55;;;11.25;;
51654;SDS011;37732;53.106;7.030;2022-07-25T06:27:31;12.45;;;10.93;;
51654;SDS011;37732;53.106;7.030;2022-07-25T06:29:57;15.23;;;12.05;;
51654;SDS011;37732;53.106;7.030;2022-07-25T06:32:23;13.30;;;11.50;;
51654;SDS011;37732;53.106;7.030;2022-07-25T06:34:48;14.23;;;11.18;;
51654;SDS011;37732;53.106;7.030;2022-07-25T06:37:17;11.57;;;10.48;;
51654;SDS011;37732;53.106;7.030;2022-07-25T06:39:44;14.02;;;11.30;;
51654;SDS011;37732;53.106;7.030;2022-07-25T06:42:10;13.48;;;12.05;;
51654;SDS011;37732;53.106;7.030;2022-07-25T06:44:36;12.75;;;10.80;;
51654;SDS011;37732;53.106;7.030;2022-07-25T06:47:02;13.85;;;11.40;;
51654;SDS011;37732;53.106;7.030;2022-07-25T06:49:30;11.70;;;9.98;;
51654;SDS011;37732;53.106;7.030;2022-07-25T06:51:56;12.82;;;11.27;;
51654;SDS011;37732;53.106;7.030;2022-07-25T06:54:23;11.80;;;10.35;;
51654;SDS011;37732;53.106;7.030;2022-07-25T06:56:49;12.95;;;10.55;;
51654;SDS011;37732;53.106;7.030;2022-07-25T06:59:15;10.55;;;9.48;;
51654;SDS011;37732;53.106;7.030;2022-07-25T07:01:42;13.70;;;11.68;;
51654;SDS011;37732;53.106;7.030;2022-07-25T07:04:08;14.85;;;11.30;;
51654;SDS011;37732;53.106;7.030;2022-07-25T07:06:35;13.68;;;10.90;;
51654;SDS011;37732;53.106;7.030;2022-07-25T07:09:04;14.98;;;11.18;;
51654;SDS011;37732;53.106;7.030;2022-07-25T07:11:30;11.98;;;10.70;;
51654;SDS011;37732;53.106;7.030;2022-07-25T07:13:56;19.38;;;10.75;;
51654;SDS011;37732;53.106;7.030;2022-07-25T07:16:21;12.18;;;10.93;;
51654;SDS011;37732;53.106;7.030;2022-07-25T07:18:49;11.63;;;10.43;;
51654;SDS011;37732;53.106;7.030;2022-07-25T07:21:15;13.75;;;9.52;;
51654;SDS011;37732;53.106;7.030;2022-07-25T07:23:41;13.52;;;9.70;;
51654;SDS011;37732;53.106;7.030;2022-07-25T07:26:07;12.02;;;9.60;;
51654;SDS011;37732;53.106;7.030;2022-07-25T07:28:33;10.93;;;9.35;;
51654;SDS011;37732;53.106;7.030;2022-07-25T07:31:00;12.75;;;9.05;;
51654;SDS011;37732;53.106;7.030;2022-07-25T07:33:26;12.90;;;10.48;;
51654;SDS011;37732;53.106;7.030;2022-07-25T07:35:52;11.07;;;9.15;;
51654;SDS011;37732;53.106;7.030;2022-07-25T07:38:21;12.13;;;10.55;;
51654;SDS011;37732;53.106;7.030;2022-07-25T07:40:48;11.13;;;9.02;;
51654;SDS011;37732;53.106;7.030;2022-07-25T07:43:14;12.00;;;9.48;;
51654;SDS011;37732;53.106;7.030;2022-07-25T07:45:40;12.93;;;9.50;;
51654;SDS011;37732;53.106;7.030;2022-07-25T07:48:08;11.68;;;9.65;;
51654;SDS011;37732;53.106;7.030;2022-07-25T07:50:34;13.40;;;10.15;;
51654;SDS011;37732;53.106;7.030;2022-07-25T07:53:00;10.57;;;9.48;;
51654;SDS011;37732;53.106;7.030;2022-07-25T07:55:26;10.90;;;9.25;;
51654;SDS011;37732;53.106;7.030;2022-07-25T07:58:12;12.18;;;9.98;;
51654;SDS011;37732;53.106;7.030;2022-07-25T08:00:43;11.55;;;10.35;;
51654;SDS011;37732;53.106;7.030;2022-07-25T08:03:12;26.85;;;10.55;;
51654;SDS011;37732;53.106;7.030;2022-07-25T08:05:48;19.65;;;10.52;;
51654;SDS011;37732;53.106;7.030;2022-07-25T08:08:16;13.52;;;10.18;;
51654;SDS011;37732;53.106;7.030;2022-07-25T08:10:44;12.60;;;9.63;;
51654;SDS011;37732;53.106;7.030;2022-07-25T08:13:17;26.70;;;11.90;;
51654;SDS011;37732;53.106;7.030;2022-07-25T08:15:46;10.88;;;9.38;;
51654;SDS011;37732;53.106;7.030;2022-07-25T08:18:17;12.40;;;9.98;;
51654;SDS011;37732;53.106;7.030;2022-07-25T08:20:47;12.30;;;9.98;;
51654;SDS011;37732;53.106;7.030;2022-07-25T08:23:14;10.65;;;9.55;;
51654;SDS011;37732;53.106;7.030;2022-07-25T08:25:42;12.25;;;10.50;;
51654;SDS011;37732;53.106;7.030;2022-07-25T08:28:08;11.40;;;9.02;;
51654;SDS011;37732;53.106;7.030;2022-07-25T08:30:35;10.38;;;8.85;;
51654;SDS011;37732;53.106;7.030;2022-07-25T08:33:03;12.20;;;8.77;;
51654;SDS011;37732;53.106;7.030;2022-07-25T08:35:31;13.98;;;9.35;;
51654;SDS011;37732;53.106;7.030;2022-07-25T08:38:00;10.50;;;8.50;;
51654;SDS011;37732;53.106;7.030;2022-07-25T08:40:27;12.45;;;9.55;;
51654;SDS011;37732;53.106;7.030;2022-07-25T08:42:55;9.63;;;8.57;;
51654;SDS011;37732;53.106;7.030;2022-07-25T08:45:22;10.65;;;9.07;;
51654;SDS011;37732;53.106;7.030;2022-07-25T08:47:52;10.82;;;9.30;;
51654;SDS011;37732;53.106;7.030;2022-07-25T08:50:21;11.32;;;9.50;;
51654;SDS011;37732;53.106;7.030;2022-07-25T08:52:53;11.80;;;8.15;;
51654;SDS011;37732;53.106;7.030;2022-07-25T08:55:20;9.45;;;7.88;;
51654;SDS011;37732;53.106;7.030;2022-07-25T08:57:48;9.52;;;7.95;;
51654;SDS011;37732;53.106;7.030;2022-07-25T09:00:17;12.63;;;6.57;;
51654;SDS011;37732;53.106;7.030;2022-07-25T09:02:53;8.35;;;6.50;;
51654;SDS011;37732;53.106;7.030;2022-07-25T09:05:26;9.07;;;6.38;;
51654;SDS011;37732;53.106;7.030;2022-07-25T09:07:55;11.55;;;7.60;;
51654;SDS011;37732;53.106;7.030;2022-07-25T09:12:52;7.35;;;6.30;;
51654;SDS011;37732;53.106;7.030;2022-07-25T09:15:35;7.78;;;5.95;;
51654;SDS011;37732;53.106;7.030;2022-07-25T09:18:05;8.48;;;6.10;;
51654;SDS011;37732;53.106;7.030;2022-07-25T09:20:41;69.03;;;11.32;;
51654;SDS011;37732;53.106;7.030;2022-07-25T09:23:13;11.10;;;7.13;;
51654;SDS011;37732;53.106;7.030;2022-07-25T09:25:51;8.60;;;6.75;;
51654;SDS011;37732;53.106;7.030;2022-07-25T09:28:18;10.40;;;7.22;;
51654;SDS011;37732;53.106;7.030;2022-07-25T09:30:52;7.72;;;6.78;;
51654;SDS011;37732;53.106;7.030;2022-07-25T09:33:25;8.85;;;7.25;;
51654;SDS011;37732;53.106;7.030;2022-07-25T09:35:52;13.30;;;7.68;;
51654;SDS011;37732;53.106;7.030;2022-07-25T09:38:25;9.07;;;7.47;;
51654;SDS011;37732;53.106;7.030;2022-07-25T09:40:55;10.45;;;8.18;;
51654;SDS011;37732;53.106;7.030;2022-07-25T09:46:05;8.73;;;7.22;;
51654;SDS011;37732;53.106;7.030;2022-07-25T09:48:31;9.50;;;6.97;;
51654;SDS011;37732;53.106;7.030;2022-07-25T09:51:00;8.27;;;7.05;;
51654;SDS011;37732;53.106;7.030;2022-07-25T09:53:26;7.60;;;6.80;;
51654;SDS011;37732;53.106;7.030;2022-07-25T09:55:53;8.23;;;7.35;;
51654;SDS011;37732;53.106;7.030;2022-07-25T09:58:25;13.02;;;6.88;;
51654;SDS011;37732;53.106;7.030;2022-07-25T10:00:55;7.00;;;6.30;;
51654;SDS011;37732;53.106;7.030;2022-07-25T10:03:47;8.88;;;6.70;;
51654;SDS011;37732;53.106;7.030;2022-07-25T10:06:38;8.05;;;6.68;;
51654;SDS011;37732;53.106;7.030;2022-07-25T10:09:12;7.57;;;5.88;;
51654;SDS011;37732;53.106;7.030;2022-07-25T10:11:38;8.82;;;6.40;;
51654;SDS011;37732;53.106;7.030;2022-07-25T10:14:08;7.22;;;5.72;;
51654;SDS011;37732;53.106;7.030;2022-07-25T10:16:46;7.55;;;6.53;;
51654;SDS011;37732;53.106;7.030;2022-07-25T10:19:12;8.48;;;6.38;;
51654;SDS011;37732;53.106;7.030;2022-07-25T10:21:41;8.05;;;6.38;;
51654;SDS011;37732;53.106;7.030;2022-07-25T10:24:07;8.93;;;6.00;;
51654;SDS011;37732;53.106;7.030;2022-07-25T10:26:36;8.65;;;6.10;;
51654;SDS011;37732;53.106;7.030;2022-07-25T10:29:07;7.78;;;5.20;;
51654;SDS011;37732;53.106;7.030;2022-07-25T10:31:40;6.80;;;4.95;;
51654;SDS011;37732;53.106;7.030;2022-07-25T10:34:09;6.07;;;4.53;;
51654;SDS011;37732;53.106;7.030;2022-07-25T10:39:17;5.95;;;4.05;;
51654;SDS011;37732;53.106;7.030;2022-07-25T10:41:52;19.25;;;4.82;;
51654;SDS011;37732;53.106;7.030;2022-07-25T10:44:26;6.82;;;3.67;;
51654;SDS011;37732;53.106;7.030;2022-07-25T10:47:04;5.03;;;3.10;;
51654;SDS011;37732;53.106;7.030;2022-07-25T10:49:40;4.65;;;2.75;;
51654;SDS011;37732;53.106;7.030;2022-07-25T10:52:16;4.40;;;2.95;;
51654;SDS011;37732;53.106;7.030;2022-07-25T10:57:24;3.67;;;2.50;;
51654;SDS011;37732;53.106;7.030;2022-07-25T10:59:52;3.90;;;2.60;;
51654;SDS011;37732;53.106;7.030;2022-07-25T11:02:19;4.22;;;2.53;;
51654;SDS011;37732;53.106;7.030;2022-07-25T11:05:07;4.15;;;2.97;;
51654;SDS011;37732;53.106;7.030;2022-07-25T11:07:31;5.45;;;2.70;;
51654;SDS011;37732;53.106;7.030;2022-07-25T11:10:00;4.43;;;2.70;;
51654;SDS011;37732;53.106;7.030;2022-07-25T11:12:29;4.35;;;2.70;;
51654;SDS011;37732;53.106;7.030;2022-07-25T11:14:59;7.00;;;2.50;;
51654;SDS011;37732;53.106;7.030;2022-07-25T11:17:28;4.90;;;2.53;;
51654;SDS011;37732;53.106;7.030;2022-07-25T11:20:02;7.10;;;2.58;;
51654;SDS011;37732;53.106;7.030;2022-07-25T11:22:30;4.55;;;2.58;;
51654;SDS011;37732;53.106;7.030;2022-07-25T11:24:58;5.10;;;2.70;;
51654;SDS011;37732;53.106;7.030;2022-07-25T11:27:26;5.53;;;2.47;;
51654;SDS011;37732;53.106;7.030;2022-07-25T11:32:51;5.25;;;2.80;;
51654;SDS011;37732;53.106;7.030;2022-07-25T11:35:25;3.47;;;1.92;;
51654;SDS011;37732;53.106;7.030;2022-07-25T11:37:52;3.55;;;1.83;;
51654;SDS011;37732;53.106;7.030;2022-07-25T11:40:21;2.40;;;1.55;;
51654;SDS011;37732;53.106;7.030;2022-07-25T11:50:33;4.10;;;2.30;;
51654;SDS011;37732;53.106;7.030;2022-07-25T11:53:03;3.35;;;1.90;;
51654;SDS011;37732;53.106;7.030;2022-07-25T11:55:32;5.90;;;2.10;;
51654;SDS011;37732;53.106;7.030;2022-07-25T11:58:02;5.90;;;3.30;;
51654;SDS011;37732;53.106;7.030;2022-07-25T12:00:29;5.82;;;2.33;;
51654;SDS011;37732;53.106;7.030;2022-07-25T12:03:07;9.90;;;2.83;;
51654;SDS011;37732;53.106;7.030;2022-07-25T12:05:34;6.18;;;2.25;;
51654;SDS011;37732;53.106;7.030;2022-07-25T12:08:13;5.13;;;2.97;;
51654;SDS011;37732;53.106;7.030;2022-07-25T12:10:43;4.20;;;2.72;;
51654;SDS011;37732;53.106;7.030;2022-07-25T12:13:22;6.00;;;3.05;;
51654;SDS011;37732;53.106;7.030;2022-07-25T12:15:50;5.70;;;2.95;;
51654;SDS011;37732;53.106;7.030;2022-07-25T12:18:17;7.57;;;3.70;;
51654;SDS011;37732;53.106;7.030;2022-07-25T12:20:45;4.88;;;2.70;;
51654;SDS011;37732;53.106;7.030;2022-07-25T12:23:11;6.78;;;3.30;;
51654;SDS011;37732;53.106;7.030;2022-07-25T12:25:40;5.18;;;2.80;;
51654;SDS011;37732;53.106;7.030;2022-07-25T12:28:08;6.10;;;2.80;;
51654;SDS011;37732;53.106;7.030;2022-07-25T12:30:36;6.28;;;2.85;;
51654;SDS011;37732;53.106;7.030;2022-07-25T12:33:03;4.97;;;3.33;;
51654;SDS011;37732;53.106;7.030;2022-07-25T12:35:30;8.07;;;2.70;;
51654;SDS011;37732;53.106;7.030;2022-07-25T12:37:57;10.90;;;3.38;;
51654;SDS011;37732;53.106;7.030;2022-07-25T12:40:23;7.88;;;2.75;;
51654;SDS011;37732;53.106;7.030;2022-07-25T12:42:49;9.85;;;3.08;;
51654;SDS011;37732;53.106;7.030;2022-07-25T12:45:15;7.93;;;3.42;;
51654;SDS011;37732;53.106;7.030;2022-07-25T12:47:44;9.73;;;3.10;;
51654;SDS011;37732;53.106;7.030;2022-07-25T12:50:13;14.52;;;4.07;;
51654;SDS011;37732;53.106;7.030;2022-07-25T12:52:42;10.73;;;3.35;;
51654;SDS011;37732;53.106;7.030;2022-07-25T12:55:11;7.68;;;3.28;;
51654;SDS011;37732;53.106;7.030;2022-07-25T12:57:40;6.72;;;3.05;;
51654;SDS011;37732;53.106;7.030;2022-07-25T13:00:07;7.35;;;3.10;;
51654;SDS011;37732;53.106;7.030;2022-07-25T13:02:36;8.48;;;2.90;;
51654;SDS011;37732;53.106;7.030;2022-07-25T13:05:03;5.70;;;2.70;;
51654;SDS011;37732;53.106;7.030;2022-07-25T13:07:31;5.18;;;2.22;;
51654;SDS011;37732;53.106;7.030;2022-07-25T13:09:58;5.35;;;2.47;;
51654;SDS011;37732;53.106;7.030;2022-07-25T13:12:24;7.93;;;2.65;;
51654;SDS011;37732;53.106;7.030;2022-07-25T13:14:51;4.20;;;2.42;;
51654;SDS011;37732;53.106;7.030;2022-07-25T13:17:16;4.93;;;2.15;;
51654;SDS011;37732;53.106;7.030;2022-07-25T13:19:45;9.68;;;2.97;;
51654;SDS011;37732;53.106;7.030;2022-07-25T13:22:11;5.78;;;2.35;;
51654;SDS011;37732;53.106;7.030;2022-07-25T13:24:36;4.10;;;1.65;;
51654;SDS011;37732;53.106;7.030;2022-07-25T13:27:03;7.30;;;2.45;;
51654;SDS011;37732;53.106;7.030;2022-07-25T13:29:31;5.43;;;2.33;;
51654;SDS011;37732;53.106;7.030;2022-07-25T13:32:00;4.55;;;2.20;;
51654;SDS011;37732;53.106;7.030;2022-07-25T13:34:27;13.95;;;5.30;;
51654;SDS011;37732;53.106;7.030;2022-07-25T13:36:54;10.77;;;4.05;;
51654;SDS011;37732;53.106;7.030;2022-07-25T13:39:20;7.10;;;2.65;;
51654;SDS011;37732;53.106;7.030;2022-07-25T13:41:46;7.72;;;3.15;;
51654;SDS011;37732;53.106;7.030;2022-07-25T13:44:14;7.38;;;3.15;;
51654;SDS011;37732;53.106;7.030;2022-07-25T13:46:40;5.30;;;3.17;;
51654;SDS011;37732;53.106;7.030;2022-07-25T13:49:06;4.22;;;2.10;;
51654;SDS011;37732;53.106;7.030;2022-07-25T13:51:34;3.90;;;1.90;;
51654;SDS011;37732;53.106;7.030;2022-07-25T13:54:01;5.30;;;2.10;;
51654;SDS011;37732;53.106;7.030;2022-07-25T13:56:28;6.45;;;2.95;;
51654;SDS011;37732;53.106;7.030;2022-07-25T13:58:55;5.03;;;2.20;;
51654;SDS011;37732;53.106;7.030;2022-07-25T14:01:21;6.38;;;2.30;;
51654;SDS011;37732;53.106;7.030;2022-07-25T14:03:47;11.80;;;3.33;;
51654;SDS011;37732;53.106;7.030;2022-07-25T14:06:15;6.53;;;3.20;;
51654;SDS011;37732;53.106;7.030;2022-07-25T14:08:41;8.73;;;3.58;;
51654;SDS011;37732;53.106;7.030;2022-07-25T14:11:08;5.97;;;3.20;;
51654;SDS011;37732;53.106;7.030;2022-07-25T14:13:35;7.65;;;2.30;;
51654;SDS011;37732;53.106;7.030;2022-07-25T14:16:00;5.88;;;2.45;;
51654;SDS011;37732;53.106;7.030;2022-07-25T14:18:27;5.32;;;1.95;;
51654;SDS011;37732;53.106;7.030;2022-07-25T14:20:56;5.45;;;2.33;;
51654;SDS011;37732;53.106;7.030;2022-07-25T14:23:22;5.15;;;2.70;;
51654;SDS011;37732;53.106;7.030;2022-07-25T14:25:48;8.93;;;2.85;;
51654;SDS011;37732;53.106;7.030;2022-07-25T14:28:14;7.40;;;2.80;;
51654;SDS011;37732;53.106;7.030;2022-07-25T14:30:40;6.75;;;2.30;;
51654;SDS011;37732;53.106;7.030;2022-07-25T14:33:07;5.43;;;2.55;;
51654;SDS011;37732;53.106;7.030;2022-07-25T14:35:33;6.80;;;2.78;;
51654;SDS011;37732;53.106;7.030;2022-07-25T14:37:59;9.18;;;2.60;;
51654;SDS011;37732;53.106;7.030;2022-07-25T14:40:25;3.40;;;2.03;;
51654;SDS011;37732;53.106;7.030;2022-07-25T14:42:52;4.47;;;2.10;;
51654;SDS011;37732;53.106;7.030;2022-07-25T14:45:19;5.28;;;2.15;;
51654;SDS011;37732;53.106;7.030;2022-07-25T14:47:46;5.10;;;2.40;;
51654;SDS011;37732;53.106;7.030;2022-07-25T14:50:14;6.57;;;2.80;;
51654;SDS011;37732;53.106;7.030;2022-07-25T14:52:40;7.65;;;2.45;;
51654;SDS011;37732;53.106;7.030;2022-07-25T14:55:06;5.30;;;2.38;;
51654;SDS011;37732;53.106;7.030;2022-07-25T14:57:32;6.60;;;2.90;;